Time;durP1;ratioP1;P1;durP2;ratioP2;P2;SDS_P1;SDS_P2;PMS_P1;PMS_P2;Temp;Humidity;BMP_temperature;BMP_pressure;BME280_temperature;BME280_humidity;BME280_pressure;Samples;Min_cycle;Max_cycle;Signal;HPM_P1;HPM_P2
2023/02/22 00:00:21;;;;;;;43.87;16.40;;;6.80;99.90;;;;;;5037154;28;21605;-66
2023/02/22 00:02:51;;;;;;;31.03;15.13;;;6.80;99.90;;;;;;5052005;28;20201;-66
2023/02/22 00:05:23;;;;;;;36.67;16.87;;;6.90;99.90;;;;;;5034347;28;20274;-65
2023/02/22 00:07:49;;;;;;;42.30;17.33;;;6.90;99.90;;;;;;5031824;28;20699;-67
2023/02/22 00:10:19;;;;;;;47.90;16.13;;;6.90;99.90;;;;;;5047391;28;20586;-66
2023/02/22 00:12:47;;;;;;;40.47;15.93;;;6.80;99.90;;;;;;5051750;28;20178;-65
2023/02/22 00:15:13;;;;;;;36.07;15.43;;;6.80;99.90;;;;;;5035307;28;20638;-66
2023/02/22 00:17:39;;;;;;;38.90;18.00;;;6.90;99.90;;;;;;5031892;28;20589;-67
2023/02/22 00:20:06;;;;;;;44.03;15.53;;;6.90;99.90;;;;;;5043165;28;20182;-66
2023/02/22 00:22:32;;;;;;;28.27;14.77;;;6.90;99.90;;;;;;5051300;28;20221;-67
2023/02/22 00:24:58;;;;;;;37.73;17.30;;;6.90;99.90;;;;;;5039764;28;20187;-65
2023/02/22 00:27:24;;;;;;;54.53;18.50;;;7.00;99.90;;;;;;5048047;28;20186;-66
2023/02/22 00:29:49;;;;;;;46.20;16.30;;;7.10;99.90;;;;;;5040122;28;20179;-65
2023/02/22 00:32:15;;;;;;;34.47;14.60;;;7.00;99.90;;;;;;5031577;28;20218;-66
2023/02/22 00:34:42;;;;;;;50.97;15.67;;;7.00;99.90;;;;;;5031516;28;20652;-67
2023/02/22 00:37:09;;;;;;;54.03;15.33;;;6.90;99.90;;;;;;5031703;28;20167;-66
2023/02/22 00:39:35;;;;;;;49.37;16.80;;;6.90;99.90;;;;;;5047767;28;20519;-66
2023/02/22 00:42:00;;;;;;;55.50;18.60;;;6.90;99.90;;;;;;5031649;28;20187;-65
2023/02/22 00:44:26;;;;;;;43.83;16.47;;;6.90;99.90;;;;;;5049504;28;20185;-66
2023/02/22 00:46:52;;;;;;;42.07;15.33;;;6.90;99.90;;;;;;5050360;28;20702;-67
2023/02/22 00:49:17;;;;;;;36.60;14.83;;;6.90;99.90;;;;;;5032976;28;20206;-66
2023/02/22 00:51:43;;;;;;;38.43;16.40;;;6.90;99.90;;;;;;5031233;28;20203;-66
2023/02/22 00:54:09;;;;;;;27.30;14.10;;;6.90;99.90;;;;;;5045331;28;20551;-66
2023/02/22 00:56:36;;;;;;;46.70;15.37;;;6.90;99.90;;;;;;5049616;28;20213;-66
2023/02/22 00:59:02;;;;;;;36.33;14.50;;;6.90;99.90;;;;;;5041902;28;20509;-66
2023/02/22 01:01:29;;;;;;;35.70;14.97;;;6.90;99.90;;;;;;5037621;28;20683;-66
2023/02/22 01:03:55;;;;;;;40.37;16.50;;;6.90;99.90;;;;;;5050236;28;20261;-66
2023/02/22 01:06:21;;;;;;;28.63;15.20;;;6.90;99.90;;;;;;5045756;28;20260;-67
2023/02/22 01:08:48;;;;;;;30.20;17.23;;;6.90;99.90;;;;;;5029912;28;20224;-67
2023/02/22 01:11:15;;;;;;;24.43;15.40;;;6.90;99.90;;;;;;5034014;28;20201;-66
2023/02/22 01:13:41;;;;;;;33.20;14.93;;;6.90;99.90;;;;;;5051200;28;20177;-67
2023/02/22 01:16:07;;;;;;;35.70;14.90;;;6.90;99.90;;;;;;5048926;28;20254;-67
2023/02/22 01:18:34;;;;;;;43.57;15.23;;;6.90;99.90;;;;;;5031333;28;20262;-67
2023/02/22 01:21:00;;;;;;;34.13;15.57;;;6.90;99.90;;;;;;5033252;28;20179;-66
2023/02/22 01:23:26;;;;;;;30.87;15.50;;;6.90;99.90;;;;;;5042394;28;20190;-66
2023/02/22 01:25:52;;;;;;;28.67;14.03;;;6.90;99.90;;;;;;5045046;28;20233;-66
2023/02/22 01:28:18;;;;;;;36.23;14.80;;;6.90;99.90;;;;;;5034892;28;20222;-66
2023/02/22 01:30:44;;;;;;;38.27;16.83;;;6.90;99.90;;;;;;5038946;28;20179;-66
2023/02/22 01:33:11;;;;;;;59.60;16.43;;;6.90;99.90;;;;;;5034756;28;20190;-67
2023/02/22 01:35:41;;;;;;;23.47;12.93;;;6.90;99.90;;;;;;5040824;28;20599;-66
2023/02/22 01:38:08;;;;;;;42.47;14.77;;;6.90;99.90;;;;;;5054674;28;20174;-66
2023/02/22 01:40:40;;;;;;;44.93;14.57;;;6.90;99.90;;;;;;5051013;28;20185;-66
2023/02/22 01:43:29;;;;;;;40.63;13.23;;;6.90;99.90;;;;;;5033114;28;20424;-66
2023/02/22 01:46:03;;;;;;;35.97;13.70;;;6.80;99.90;;;;;;5034920;28;20171;-66
2023/02/22 01:48:35;;;;;;;44.23;13.33;;;6.80;99.90;;;;;;5034424;28;20211;-66
2023/02/22 01:51:09;;;;;;;43.83;14.97;;;6.70;99.90;;;;;;5034169;28;20175;-66
2023/02/22 01:56:03;;;;;;;32.60;15.23;;;6.70;99.90;;;;;;5051272;28;20569;-63
2023/02/22 01:58:32;;;;;;;30.57;13.37;;;6.70;99.90;;;;;;5053973;28;20177;-64
2023/02/22 02:00:58;;;;;;;32.60;12.90;;;6.70;99.90;;;;;;5053159;28;20183;-63
2023/02/22 02:03:29;;;;;;;24.97;13.00;;;6.70;99.90;;;;;;5053614;28;20687;-63
2023/02/22 02:05:59;;;;;;;35.80;14.27;;;6.70;99.90;;;;;;5053887;28;20210;-63
2023/02/22 02:08:48;;;;;;;23.43;12.30;;;6.70;99.90;;;;;;5053969;28;20253;-63
2023/02/22 02:11:16;;;;;;;42.70;12.50;;;6.80;99.90;;;;;;5053029;28;20240;-63
2023/02/22 02:13:42;;;;;;;33.17;13.70;;;6.80;99.90;;;;;;5053687;28;20560;-63
2023/02/22 02:16:08;;;;;;;20.67;13.57;;;6.80;99.90;;;;;;5052399;28;20182;-63
2023/02/22 02:18:33;;;;;;;31.53;13.93;;;6.80;99.90;;;;;;5053554;28;20182;-63
2023/02/22 02:21:18;;;;;;;24.33;13.30;;;6.80;99.90;;;;;;5053089;28;20187;-65
2023/02/22 02:23:49;;;;;;;20.47;13.77;;;6.70;99.90;;;;;;5053554;28;20255;-63
2023/02/22 02:26:33;;;;;;;36.57;15.03;;;6.60;99.90;;;;;;5053444;28;20723;-63
2023/02/22 02:29:41;;;;;;;18.27;12.50;;;6.60;99.90;;;;;;5053176;28;20206;-63
2023/02/22 02:32:45;;;;;;;27.80;14.17;;;6.60;99.90;;;;;;5053448;28;20193;-63
2023/02/22 02:35:36;;;;;;;18.67;12.20;;;6.50;99.90;;;;;;5053237;28;20350;-63
2023/02/22 02:38:29;;;;;;;31.33;13.27;;;6.40;99.90;;;;;;5054259;28;20183;-63
2023/02/22 02:41:06;;;;;;;26.73;14.70;;;6.40;99.90;;;;;;5033288;28;20171;-63
2023/02/22 02:43:56;;;;;;;18.13;12.37;;;6.40;99.90;;;;;;5035529;28;20596;-63
2023/02/22 02:46:58;;;;;;;32.40;13.57;;;6.40;99.90;;;;;;5053055;28;20639;-65
2023/02/22 02:49:32;;;;;;;20.73;12.80;;;6.40;99.90;;;;;;5035828;28;20218;-62
2023/02/22 02:52:00;;;;;;;38.60;13.83;;;6.50;99.90;;;;;;5052644;28;20206;-63
2023/02/22 02:54:27;;;;;;;30.70;13.70;;;6.50;99.90;;;;;;5052495;28;20194;-65
2023/02/22 02:56:53;;;;;;;28.10;13.57;;;6.50;99.90;;;;;;5052768;28;20542;-65
2023/02/22 02:59:29;;;;;;;30.83;14.87;;;6.50;99.90;;;;;;5052253;28;20253;-62
2023/02/22 03:02:21;;;;;;;30.50;15.30;;;6.50;99.90;;;;;;5052589;28;20198;-65
2023/02/22 03:04:56;;;;;;;32.47;14.53;;;6.50;99.90;;;;;;5036718;28;20233;-63
2023/02/22 03:07:56;;;;;;;27.13;14.90;;;6.50;99.90;;;;;;5052358;28;20180;-65
2023/02/22 03:10:30;;;;;;;35.33;15.93;;;6.40;99.90;;;;;;5040209;28;20191;-63
2023/02/22 03:13:01;;;;;;;24.63;13.00;;;6.40;99.90;;;;;;5052426;28;20197;-65
2023/02/22 03:16:01;;;;;;;28.03;14.93;;;6.40;99.90;;;;;;5052830;28;20178;-67
2023/02/22 03:18:41;;;;;;;33.27;14.33;;;6.50;99.90;;;;;;5053557;28;20190;-68
2023/02/22 03:21:15;;;;;;;27.07;12.77;;;6.50;99.90;;;;;;5053790;28;20186;-67
2023/02/22 03:23:57;;;;;;;31.73;15.13;;;6.50;99.90;;;;;;5053684;28;20636;-68
2023/02/22 03:26:33;;;;;;;26.27;13.33;;;6.50;99.90;;;;;;5053772;28;20175;-67
2023/02/22 03:29:03;;;;;;;28.20;15.13;;;6.60;99.90;;;;;;5053366;28;20198;-65
2023/02/22 03:31:36;;;;;;;35.80;14.33;;;6.60;99.90;;;;;;5053263;28;20171;-67
2023/02/22 03:34:12;;;;;;;29.20;13.70;;;6.60;99.90;;;;;;5053772;28;20194;-71
2023/02/22 03:36:46;;;;;;;35.00;14.87;;;6.60;99.90;;;;;;5053833;28;20580;-66
2023/02/22 03:39:15;;;;;;;35.00;13.77;;;6.60;99.90;;;;;;5051749;28;20182;-66
2023/02/22 03:41:47;;;;;;;27.37;14.97;;;6.60;99.90;;;;;;5052904;28;20190;-67
2023/02/22 03:44:16;;;;;;;26.80;13.80;;;6.50;99.90;;;;;;5053692;28;20190;-67
2023/02/22 03:46:45;;;;;;;36.20;16.27;;;6.60;99.90;;;;;;5052078;28;20203;-69
2023/02/22 03:49:16;;;;;;;33.43;14.13;;;6.50;99.90;;;;;;5052052;28;20206;-69
2023/02/22 03:51:42;;;;;;;27.17;14.13;;;6.50;99.90;;;;;;5053355;28;20167;-65
2023/02/22 03:54:15;;;;;;;31.20;15.03;;;6.50;99.90;;;;;;5053297;28;20201;-66
2023/02/22 03:56:48;;;;;;;24.07;13.47;;;6.50;99.90;;;;;;5053411;28;20658;-68
2023/02/22 03:59:14;;;;;;;35.17;15.77;;;6.50;99.90;;;;;;5053172;28;20542;-66
2023/02/22 04:01:40;;;;;;;24.00;13.83;;;6.50;99.90;;;;;;5053040;28;20644;-66
2023/02/22 04:04:06;;;;;;;26.90;15.50;;;6.50;99.90;;;;;;5053274;28;20300;-69
2023/02/22 04:06:31;;;;;;;32.90;15.93;;;6.50;99.90;;;;;;5053020;28;20245;-67
2023/02/22 04:08:57;;;;;;;36.57;16.43;;;6.50;99.90;;;;;;5053184;28;20284;-69
2023/02/22 04:11:23;;;;;;;28.67;15.33;;;6.60;99.90;;;;;;5052667;28;20163;-67
2023/02/22 04:13:48;;;;;;;24.40;14.17;;;6.50;99.90;;;;;;5052908;28;20249;-66
2023/02/22 04:16:14;;;;;;;23.67;13.63;;;6.50;99.90;;;;;;5053326;28;20163;-66
2023/02/22 04:18:39;;;;;;;19.83;13.40;;;6.50;99.90;;;;;;5053037;28;20232;-70
2023/02/22 04:21:05;;;;;;;25.97;12.43;;;6.40;99.90;;;;;;5053004;28;20177;-69
2023/02/22 04:23:31;;;;;;;31.97;15.40;;;6.40;99.90;;;;;;5053051;28;20195;-69
2023/02/22 04:25:56;;;;;;;32.70;14.93;;;6.40;99.90;;;;;;5053370;28;20202;-65
2023/02/22 04:28:22;;;;;;;27.33;13.67;;;6.30;99.90;;;;;;5052670;28;20198;-66
2023/02/22 04:30:47;;;;;;;23.17;15.07;;;6.20;99.90;;;;;;5052779;28;20181;-65
2023/02/22 04:33:15;;;;;;;21.30;14.47;;;6.10;99.90;;;;;;5052460;28;20183;-69
2023/02/22 04:35:40;;;;;;;30.57;14.47;;;6.10;99.90;;;;;;5052729;28;20223;-66
2023/02/22 04:38:08;;;;;;;24.80;13.47;;;6.00;99.90;;;;;;5052781;28;20174;-69
2023/02/22 04:40:33;;;;;;;21.33;14.10;;;6.00;99.90;;;;;;5052554;28;20221;-70
2023/02/22 04:42:59;;;;;;;28.97;13.70;;;6.10;99.90;;;;;;5052857;28;20199;-66
2023/02/22 04:45:25;;;;;;;24.10;12.33;;;6.10;99.90;;;;;;5053086;28;20205;-67
2023/02/22 04:47:50;;;;;;;25.43;14.67;;;6.00;99.90;;;;;;5052860;28;20565;-67
2023/02/22 04:50:16;;;;;;;36.50;15.43;;;6.00;99.90;;;;;;5052832;28;20250;-67
2023/02/22 04:52:42;;;;;;;23.73;12.67;;;6.00;99.90;;;;;;5051500;28;20721;-67
2023/02/22 04:55:08;;;;;;;27.07;14.63;;;6.00;99.90;;;;;;5056448;28;20541;-67
2023/02/22 04:57:34;;;;;;;33.33;14.53;;;5.90;99.90;;;;;;5056416;28;20178;-67
2023/02/22 04:59:59;;;;;;;22.67;13.53;;;5.90;99.90;;;;;;5056413;28;20171;-66
2023/02/22 05:02:25;;;;;;;30.97;13.67;;;5.90;99.90;;;;;;5056483;28;20202;-70
2023/02/22 05:04:51;;;;;;;19.27;12.03;;;5.90;99.90;;;;;;5056489;28;20167;-68
2023/02/22 05:07:16;;;;;;;29.93;15.27;;;5.90;99.90;;;;;;5056336;28;20232;-66
2023/02/22 05:09:42;;;;;;;33.70;13.27;;;5.90;99.90;;;;;;5055985;28;20678;-67
2023/02/22 05:12:08;;;;;;;29.07;14.07;;;5.90;99.90;;;;;;5056235;28;20187;-66
2023/02/22 05:14:34;;;;;;;21.10;13.47;;;5.90;99.90;;;;;;5056755;28;20186;-71
2023/02/22 05:17:01;;;;;;;24.50;14.17;;;5.90;99.90;;;;;;5056827;28;20166;-66
2023/02/22 05:19:26;;;;;;;26.00;13.13;;;5.90;99.90;;;;;;5055829;28;20178;-66
2023/02/22 05:21:52;;;;;;;26.97;13.17;;;5.90;99.90;;;;;;5056142;28;20202;-65
2023/02/22 05:24:18;;;;;;;23.23;13.60;;;6.00;99.90;;;;;;5056287;28;20167;-67
2023/02/22 05:26:44;;;;;;;26.70;13.60;;;6.00;99.90;;;;;;5056151;28;20546;-67
2023/02/22 05:29:10;;;;;;;22.47;13.67;;;6.00;99.90;;;;;;5055948;28;20218;-68
2023/02/22 05:31:35;;;;;;;23.03;14.40;;;6.00;99.90;;;;;;5055527;28;20183;-67
2023/02/22 05:34:01;;;;;;;47.33;14.23;;;6.10;99.90;;;;;;5056315;28;20189;-67
2023/02/22 05:36:27;;;;;;;30.63;13.80;;;6.10;99.90;;;;;;5056113;28;20185;-71
2023/02/22 05:38:53;;;;;;;26.63;16.87;;;6.10;99.90;;;;;;5053992;28;20272;-69
2023/02/22 05:41:19;;;;;;;44.87;15.43;;;6.10;99.90;;;;;;5051054;28;20191;-66
2023/02/22 05:43:45;;;;;;;22.20;13.50;;;6.20;99.90;;;;;;5054001;28;20272;-66
2023/02/22 05:46:10;;;;;;;20.80;12.33;;;6.10;99.90;;;;;;5055733;28;20215;-68
2023/02/22 05:48:36;;;;;;;23.63;13.87;;;6.10;99.90;;;;;;5056336;28;20202;-69
2023/02/22 05:51:02;;;;;;;24.47;14.00;;;6.10;99.90;;;;;;5055609;28;20167;-66
2023/02/22 05:53:29;;;;;;;23.87;13.87;;;6.00;99.90;;;;;;5055373;28;20203;-67
2023/02/22 05:55:54;;;;;;;21.40;12.87;;;6.00;99.90;;;;;;5055686;28;20270;-68
2023/02/22 05:58:20;;;;;;;39.00;15.60;;;5.90;99.90;;;;;;5055190;28;20714;-68
2023/02/22 06:00:46;;;;;;;22.27;13.27;;;5.90;99.90;;;;;;5053994;28;20205;-69
2023/02/22 06:03:12;;;;;;;22.17;12.90;;;5.80;99.90;;;;;;5055709;28;20194;-68
2023/02/22 06:05:37;;;;;;;23.33;12.43;;;5.80;99.90;;;;;;5054464;28;20175;-66
2023/02/22 06:08:05;;;;;;;23.67;14.10;;;5.80;99.90;;;;;;5055535;28;20205;-68
2023/02/22 06:10:31;;;;;;;30.53;14.93;;;5.80;99.90;;;;;;5055157;28;20210;-67
2023/02/22 06:12:57;;;;;;;23.10;13.83;;;5.70;99.90;;;;;;5053625;28;20218;-69
2023/02/22 06:15:24;;;;;;;31.67;13.50;;;5.80;99.90;;;;;;5054992;28;20246;-67
2023/02/22 06:17:50;;;;;;;26.50;14.53;;;5.80;99.90;;;;;;5054971;28;20540;-68
2023/02/22 06:20:19;;;;;;;27.73;14.67;;;5.80;99.90;;;;;;5054550;28;20175;-67
2023/02/22 06:22:48;;;;;;;28.37;13.17;;;5.80;99.90;;;;;;5053381;28;20195;-67
2023/02/22 06:25:17;;;;;;;23.47;14.43;;;5.80;99.90;;;;;;5055241;28;20550;-70
2023/02/22 06:27:43;;;;;;;16.63;13.87;;;5.80;99.90;;;;;;5054429;28;20186;-69
2023/02/22 06:30:10;;;;;;;22.27;13.37;;;5.80;99.90;;;;;;5054965;28;20183;-67
2023/02/22 06:32:36;;;;;;;37.63;15.53;;;5.70;99.90;;;;;;5055142;28;20271;-67
2023/02/22 06:35:02;;;;;;;24.70;13.73;;;5.70;99.90;;;;;;5055048;28;20755;-65
2023/02/22 06:37:28;;;;;;;36.30;14.67;;;5.70;99.90;;;;;;5054603;28;20554;-67
2023/02/22 06:39:53;;;;;;;16.83;13.33;;;5.70;99.90;;;;;;5053290;28;20194;-68
2023/02/22 06:42:19;;;;;;;32.20;13.80;;;5.70;99.90;;;;;;5053588;28;20198;-69
2023/02/22 06:44:45;;;;;;;26.07;14.10;;;5.70;99.90;;;;;;5054799;28;20273;-66
2023/02/22 06:47:10;;;;;;;29.70;13.40;;;5.60;99.90;;;;;;5054689;28;20179;-67
2023/02/22 06:49:36;;;;;;;30.67;14.77;;;5.60;99.90;;;;;;5054199;28;20252;-65
2023/02/22 06:52:04;;;;;;;23.70;13.37;;;5.60;99.90;;;;;;5052911;28;20191;-65
2023/02/22 06:54:30;;;;;;;26.10;14.13;;;5.60;99.90;;;;;;5052473;28;20222;-65
2023/02/22 06:56:55;;;;;;;22.43;13.97;;;5.70;99.90;;;;;;5051052;28;20621;-65
2023/02/22 06:59:22;;;;;;;24.47;15.17;;;5.70;99.90;;;;;;5048687;28;20190;-62
2023/02/22 07:01:48;;;;;;;28.27;14.57;;;5.70;99.90;;;;;;5052323;28;20183;-63
2023/02/22 07:04:14;;;;;;;26.10;14.03;;;5.70;99.90;;;;;;5052519;28;20189;-63
2023/02/22 07:06:48;;;;;;;32.63;15.23;;;5.80;99.90;;;;;;5052680;28;20179;-63
2023/02/22 07:09:15;;;;;;;25.47;15.50;;;5.80;99.90;;;;;;5033733;28;20203;-63
2023/02/22 07:11:41;;;;;;;27.30;13.90;;;5.90;99.90;;;;;;5032412;28;20167;-63
2023/02/22 07:14:07;;;;;;;32.60;15.00;;;5.90;99.90;;;;;;5032749;28;20179;-63
2023/02/22 07:16:32;;;;;;;30.60;16.13;;;6.00;99.90;;;;;;5031802;28;20275;-63
2023/02/22 07:18:59;;;;;;;23.80;15.70;;;6.00;99.90;;;;;;5032412;28;20539;-63
2023/02/22 07:21:25;;;;;;;34.90;17.00;;;6.00;99.90;;;;;;5050781;28;20175;-63
2023/02/22 07:23:53;;;;;;;24.27;14.20;;;6.10;99.90;;;;;;5052427;28;20206;-63
2023/02/22 07:26:19;;;;;;;25.70;14.27;;;6.20;99.90;;;;;;5052436;28;20273;-63
2023/02/22 07:28:46;;;;;;;23.10;14.53;;;6.20;99.90;;;;;;5050359;28;20226;-62
2023/02/22 07:31:12;;;;;;;23.13;14.60;;;6.20;99.90;;;;;;5051947;28;20166;-63
2023/02/22 07:33:37;;;;;;;29.10;15.07;;;6.30;99.90;;;;;;5051763;28;20205;-62
2023/02/22 07:36:04;;;;;;;23.93;15.77;;;6.30;99.90;;;;;;5052186;28;20241;-64
2023/02/22 07:38:31;;;;;;;26.23;13.23;;;6.30;99.90;;;;;;5051873;28;20183;-64
2023/02/22 07:40:57;;;;;;;23.83;13.90;;;6.30;99.90;;;;;;5051885;28;20436;-64
2023/02/22 07:43:25;;;;;;;23.23;14.23;;;6.20;99.90;;;;;;5051713;28;20285;-62
2023/02/22 07:45:53;;;;;;;21.47;12.93;;;6.20;99.90;;;;;;5051835;28;20181;-62
2023/02/22 07:48:20;;;;;;;23.83;14.77;;;6.30;99.90;;;;;;5051566;28;20186;-64
2023/02/22 07:50:46;;;;;;;27.57;16.30;;;6.30;99.90;;;;;;5051525;28;20210;-63
2023/02/22 07:53:18;;;;;;;29.70;15.47;;;6.40;99.90;;;;;;5051695;28;20295;-64
2023/02/22 07:55:44;;;;;;;31.07;15.57;;;6.50;99.90;;;;;;5059450;22;20783;-65
2023/02/22 07:58:13;;;;;;;26.87;15.20;;;6.70;99.90;;;;;;5051820;28;20198;-64
2023/02/22 08:00:40;;;;;;;30.13;15.67;;;6.80;99.90;;;;;;5051481;28;20175;-64
2023/02/22 08:03:11;;;;;;;21.30;15.30;;;7.00;99.90;;;;;;5051642;28;20610;-64
2023/02/22 08:05:39;;;;;;;25.20;14.77;;;7.10;99.90;;;;;;5051249;28;20688;-64
2023/02/22 08:08:05;;;;;;;21.13;16.07;;;7.30;99.90;;;;;;5051286;28;20191;-64
2023/02/22 08:10:33;;;;;;;32.20;17.07;;;7.50;99.90;;;;;;5051281;28;20204;-64
2023/02/22 08:13:00;;;;;;;38.83;15.23;;;7.60;99.90;;;;;;5051575;28;20254;-64
2023/02/22 08:15:31;;;;;;;21.27;15.50;;;7.80;99.90;;;;;;5051204;28;20198;-64
2023/02/22 08:17:59;;;;;;;41.43;14.50;;;7.90;99.90;;;;;;5051340;28;20537;-64
2023/02/22 08:20:26;;;;;;;21.40;13.53;;;8.00;99.90;;;;;;5050967;28;20655;-64
2023/02/22 08:22:53;;;;;;;20.80;12.30;;;8.10;99.90;;;;;;5051684;28;20171;-64
2023/02/22 08:25:20;;;;;;;18.60;13.93;;;8.20;99.90;;;;;;5049872;28;20229;-64
2023/02/22 08:27:46;;;;;;;22.30;14.10;;;8.40;99.90;;;;;;5051157;28;20189;-64
2023/02/22 08:30:18;;;;;;;15.47;11.93;;;8.70;99.90;;;;;;5050877;28;20536;-64
2023/02/22 08:32:45;;;;;;;24.93;12.80;;;8.90;99.90;;;;;;5051293;28;20224;-64
2023/02/22 08:35:12;;;;;;;19.07;12.00;;;9.20;99.90;;;;;;5051213;28;20194;-64
2023/02/22 08:37:45;;;;;;;14.70;11.13;;;9.40;99.90;;;;;;5051110;28;20178;-64
2023/02/22 08:40:12;;;;;;;16.63;11.37;;;9.60;99.90;;;;;;5051078;28;20250;-64
2023/02/22 08:42:37;;;;;;;19.93;13.00;;;9.70;99.90;;;;;;5051357;28;20175;-64
2023/02/22 08:45:03;;;;;;;16.97;12.57;;;9.80;99.90;;;;;;5051185;28;20221;-64
2023/02/22 08:47:29;;;;;;;14.40;11.17;;;9.90;99.90;;;;;;5050854;28;21022;-64
2023/02/22 08:49:54;;;;;;;12.70;11.17;;;9.90;99.90;;;;;;5050805;28;20198;-64
2023/02/22 08:52:20;;;;;;;15.27;12.50;;;9.90;99.90;;;;;;5050852;28;20635;-64
2023/02/22 08:54:46;;;;;;;20.63;13.17;;;10.00;99.90;;;;;;5050755;28;20753;-64
2023/02/22 08:57:12;;;;;;;15.33;12.00;;;10.10;99.90;;;;;;5050809;28;20181;-62
2023/02/22 08:59:37;;;;;;;14.83;11.63;;;10.10;99.90;;;;;;5050215;28;20224;-64
2023/02/22 09:02:04;;;;;;;12.60;11.13;;;10.20;99.90;;;;;;5050823;28;20178;-64
2023/02/22 09:04:29;;;;;;;14.60;12.50;;;10.20;99.90;;;;;;5050575;28;20206;-64
2023/02/22 09:06:55;;;;;;;14.20;12.07;;;10.30;99.90;;;;;;5051025;28;20254;-64
2023/02/22 09:09:20;;;;;;;17.90;11.87;;;10.30;99.90;;;;;;5050390;28;20208;-64
2023/02/22 09:11:49;;;;;;;13.90;11.50;;;10.40;99.90;;;;;;5050721;28;20291;-64
2023/02/22 09:14:15;;;;;;;12.33;10.87;;;10.40;99.90;;;;;;5050584;28;20640;-64
2023/02/22 09:16:42;;;;;;;17.43;11.70;;;10.40;99.90;;;;;;5050891;28;20242;-64
2023/02/22 09:19:08;;;;;;;12.90;11.17;;;10.50;99.90;;;;;;5051002;28;20258;-64
2023/02/22 09:21:33;;;;;;;13.10;11.80;;;10.50;99.90;;;;;;5050547;28;20258;-64
2023/02/22 09:24:07;;;;;;;11.30;10.30;;;10.50;99.90;;;;;;5050780;28;20240;-64
2023/02/22 09:26:33;;;;;;;16.27;10.70;;;10.40;99.90;;;;;;5050755;28;20641;-64
2023/02/22 09:28:58;;;;;;;17.73;11.73;;;10.40;99.90;;;;;;5050984;28;20207;-64
2023/02/22 09:31:24;;;;;;;11.87;10.50;;;10.50;99.90;;;;;;5050279;28;20732;-64
2023/02/22 09:33:50;;;;;;;13.27;10.20;;;10.50;99.90;;;;;;5050743;28;20171;-64
2023/02/22 09:36:42;;;;;;;14.90;10.23;;;10.70;99.90;;;;;;5050406;28;20238;-64
2023/02/22 09:39:10;;;;;;;10.60;8.97;;;10.80;99.90;;;;;;5050799;28;20721;-64
2023/02/22 09:41:45;;;;;;;10.37;9.37;;;11.00;99.90;;;;;;5053155;28;20185;-64
2023/02/22 09:44:28;;;;;;;10.37;9.30;;;11.20;99.90;;;;;;5054266;28;20170;-65
2023/02/22 09:46:57;;;;;;;10.17;9.23;;;11.50;99.90;;;;;;5054117;28;20174;-64
2023/02/22 09:49:56;;;;;;;12.87;11.07;;;11.60;99.90;;;;;;5052939;28;20207;-64
2023/02/22 09:52:57;;;;;;;11.40;9.57;;;11.70;99.90;;;;;;5053976;28;20212;-64
2023/02/22 09:55:37;;;;;;;9.30;8.37;;;12.00;99.90;;;;;;5054135;28;20568;-64
2023/02/22 09:58:16;;;;;;;10.60;9.07;;;12.20;99.90;;;;;;5034517;28;20255;-64
2023/02/22 10:00:46;;;;;;;10.53;8.17;;;12.40;99.90;;;;;;5032443;28;20182;-64
2023/02/22 10:03:27;;;;;;;10.33;8.13;;;12.60;99.90;;;;;;5032682;28;20182;-63
2023/02/22 10:06:14;;;;;;;8.33;7.47;;;12.70;99.90;;;;;;5032667;28;20202;-63
2023/02/22 10:08:43;;;;;;;9.70;8.00;;;12.90;99.90;;;;;;5032383;28;20206;-63
2023/02/22 10:11:17;;;;;;;9.00;8.30;;;13.00;99.90;;;;;;5033501;28;20688;-63
2023/02/22 10:14:16;;;;;;;11.07;8.70;;;13.00;99.90;;;;;;5033791;28;20179;-63
2023/02/22 10:17:03;;;;;;;11.30;7.67;;;13.10;99.90;;;;;;5033797;28;20167;-63
2023/02/22 10:20:07;;;;;;;11.40;8.57;;;13.30;99.90;;;;;;5033422;28;20202;-63
2023/02/22 10:22:48;;;;;;;9.10;7.87;;;13.70;99.90;;;;;;5033358;28;20567;-63
2023/02/22 10:25:20;;;;;;;9.17;8.40;;;14.10;99.90;;;;;;5033426;28;20196;-63
2023/02/22 10:27:52;;;;;;;13.70;8.40;;;14.30;99.90;;;;;;5033412;28;20175;-63
2023/02/22 10:30:29;;;;;;;9.10;8.13;;;14.40;99.90;;;;;;5033066;28;20715;-63
2023/02/22 10:33:25;;;;;;;8.67;7.77;;;14.70;99.90;;;;;;5033397;28;20629;-63
2023/02/22 10:35:53;;;;;;;8.70;7.80;;;15.10;99.90;;;;;;5028302;28;20711;-63
2023/02/22 10:38:29;;;;;;;9.50;7.77;;;15.40;99.90;;;;;;5033411;28;20203;-63
2023/02/22 10:41:22;;;;;;;6.90;6.30;;;15.70;99.90;;;;;;5033163;28;20423;-63
2023/02/22 10:43:48;;;;;;;9.10;7.17;;;16.00;99.90;;;;;;5033151;28;20207;-63
2023/02/22 10:46:17;;;;;;;10.17;6.93;;;16.30;99.90;;;;;;5033212;28;20699;-63
2023/02/22 10:48:47;;;;;;;8.53;7.33;;;16.70;99.90;;;;;;5032961;28;20211;-63
2023/02/22 10:51:13;;;;;;;11.47;6.87;;;16.80;99.90;;;;;;5032566;28;20175;-63
2023/02/22 10:53:39;;;;;;;8.60;7.70;;;17.00;99.90;;;;;;5034401;28;20183;-63
2023/02/22 10:56:15;;;;;;;7.90;7.10;;;17.10;99.90;;;;;;5052655;28;20210;-63
2023/02/22 10:59:01;;;;;;;10.50;7.10;;;17.10;99.90;;;;;;5052705;28;20224;-63
2023/02/22 11:01:37;;;;;;;11.67;8.00;;;17.00;99.90;;;;;;5051975;28;20185;-63
2023/02/22 11:04:17;;;;;;;9.90;7.73;;;16.90;99.90;;;;;;5032686;28;20233;-63
2023/02/22 11:06:46;;;;;;;7.93;7.13;;;17.00;99.90;;;;;;5042222;28;20175;-63
2023/02/22 11:09:13;;;;;;;10.67;7.50;;;17.10;99.90;;;;;;5052269;28;20217;-63
2023/02/22 11:11:45;;;;;;;11.03;8.20;;;16.90;99.90;;;;;;5052369;28;20175;-63
2023/02/22 11:14:12;;;;;;;8.30;7.60;;;16.80;99.90;;;;;;5052437;28;20182;-63
2023/02/22 11:16:42;;;;;;;9.70;8.03;;;16.80;99.90;;;;;;5052454;28;20249;-63
2023/02/22 11:19:19;;;;;;;9.50;7.67;;;17.00;99.90;;;;;;5051552;28;20675;-63
2023/02/22 11:21:56;;;;;;;9.73;7.63;;;17.10;99.90;;;;;;5051264;28;20210;-64
2023/02/22 11:24:25;;;;;;;10.17;7.20;;;17.30;99.90;;;;;;5050701;28;20209;-63
2023/02/22 11:26:55;;;;;;;9.13;7.33;;;17.30;99.90;;;;;;5050093;28;20179;-63
2023/02/22 11:29:31;;;;;;;9.27;7.77;;;17.40;99.90;;;;;;5051924;28;20281;-63
2023/02/22 11:31:59;;;;;;;11.97;8.17;;;17.40;99.90;;;;;;5051616;28;20251;-64
2023/02/22 11:34:35;;;;;;;18.00;8.10;;;17.60;99.90;;;;;;5051948;28;20191;-64
2023/02/22 11:37:33;;;;;;;7.53;6.83;;;18.00;99.90;;;;;;5051927;28;20167;-64
2023/02/22 11:40:18;;;;;;;8.37;6.43;;;18.50;99.90;;;;;;5051675;28;20185;-64
2023/02/22 11:42:45;;;;;;;11.73;6.57;;;18.60;99.90;;;;;;5051773;28;20182;-63
2023/02/22 11:45:22;;;;;;;15.10;6.87;;;18.30;99.90;;;;;;5051855;28;20218;-63
2023/02/22 11:47:59;;;;;;;7.60;6.70;;;18.20;99.90;;;;;;5051390;28;20187;-63
2023/02/22 11:50:49;;;;;;;7.83;7.13;;;18.00;99.90;;;;;;5051319;28;20189;-63
2023/02/22 11:53:28;;;;;;;7.83;6.63;;;18.10;99.90;;;;;;5051730;28;20543;-63
2023/02/22 11:56:17;;;;;;;8.40;6.77;;;18.30;99.90;;;;;;5051303;28;20198;-64
2023/02/22 11:58:55;;;;;;;7.57;6.43;;;18.60;99.90;;;;;;5050003;28;20519;-64
2023/02/22 12:01:35;;;;;;;7.00;6.40;;;18.70;99.90;;;;;;5050876;28;20972;-63
2023/02/22 12:04:45;;;;;;;7.07;6.37;;;18.60;99.90;;;;;;5050781;28;20209;-64
2023/02/22 12:07:29;;;;;;;8.07;7.27;;;18.50;99.90;;;;;;5017493;28;20218;-63
2023/02/22 12:10:23;;;;;;;8.70;7.43;;;18.20;99.90;;;;;;5031262;28;20797;-63
2023/02/22 12:13:03;;;;;;;6.70;6.07;;;18.00;99.90;;;;;;5031889;28;20213;-63
2023/02/22 12:15:32;;;;;;;7.60;6.83;;;18.00;99.90;;;;;;5033537;28;20191;-63
2023/02/22 12:18:10;;;;;;;8.83;7.50;;;18.00;99.90;;;;;;5051269;28;20224;-64
2023/02/22 12:20:46;;;;;;;8.77;7.60;;;18.00;99.90;;;;;;5050586;28;20197;-63
2023/02/22 12:23:33;;;;;;;8.67;7.20;;;18.10;99.90;;;;;;5051273;28;20170;-64
2023/02/22 12:26:19;;;;;;;6.87;6.33;;;18.20;99.90;;;;;;5050865;28;20240;-63
2023/02/22 12:29:00;;;;;;;9.50;7.80;;;18.30;99.90;;;;;;5051112;28;20256;-64
2023/02/22 12:31:45;;;;;;;7.70;6.90;;;18.40;99.90;;;;;;5048900;28;20186;-63
2023/02/22 12:34:27;;;;;;;6.83;6.07;;;18.50;99.90;;;;;;5051236;28;20159;-63
2023/02/22 12:36:56;;;;;;;6.77;5.90;;;18.60;99.90;;;;;;5051014;28;20291;-64
2023/02/22 12:39:39;;;;;;;7.00;5.77;;;18.60;99.90;;;;;;5050527;28;20170;-63
2023/02/22 12:42:16;;;;;;;6.80;6.13;;;18.60;99.90;;;;;;5051192;28;20258;-63
2023/02/22 12:44:47;;;;;;;8.27;6.60;;;18.50;99.90;;;;;;5050858;28;20271;-63
2023/02/22 12:47:18;;;;;;;9.97;6.20;;;18.50;99.90;;;;;;5051274;28;20175;-63
2023/02/22 12:49:53;;;;;;;6.97;6.27;;;18.40;99.90;;;;;;5050470;28;20209;-63
2023/02/22 12:52:25;;;;;;;8.43;6.03;;;18.40;99.90;;;;;;5051310;28;20228;-63
2023/02/22 12:55:10;;;;;;;8.03;6.27;;;18.40;99.90;;;;;;5050750;28;20211;-63
2023/02/22 12:57:49;;;;;;;12.40;6.00;;;18.40;99.90;;;;;;5051023;28;20687;-64
2023/02/22 13:00:29;;;;;;;5.50;5.00;;;18.50;99.90;;;;;;5050357;28;20206;-63